sensor_id;sensor_type;location;lat;lon;timestamp;P1;durP1;ratioP1;P2;durP2;ratioP2
20802;SDS011;10562;-33.856;151.182;2023-04-06T00:01:07;28.92;;;26.30;;
20802;SDS011;10562;-33.856;151.182;2023-04-06T00:03:38;29.92;;;27.00;;
20802;SDS011;10562;-33.856;151.182;2023-04-06T00:06:11;31.63;;;28.30;;
20802;SDS011;10562;-33.856;151.182;2023-04-06T00:08:42;35.33;;;30.08;;
20802;SDS011;10562;-33.856;151.182;2023-04-06T00:11:13;33.53;;;30.50;;
20802;SDS011;10562;-33.856;151.182;2023-04-06T00:13:44;33.67;;;30.67;;
20802;SDS011;10562;-33.856;151.182;2023-04-06T00:16:15;31.67;;;28.70;;
20802;SDS011;10562;-33.856;151.182;2023-04-06T00:18:46;29.15;;;26.73;;
20802;SDS011;10562;-33.856;151.182;2023-04-06T00:21:19;28.85;;;25.95;;
20802;SDS011;10562;-33.856;151.182;2023-04-06T00:23:49;31.90;;;28.60;;
20802;SDS011;10562;-33.856;151.182;2023-04-06T00:26:20;32.70;;;29.90;;
20802;SDS011;10562;-33.856;151.182;2023-04-06T00:28:51;31.25;;;28.25;;
20802;SDS011;10562;-33.856;151.182;2023-04-06T00:31:22;33.25;;;30.02;;
20802;SDS011;10562;-33.856;151.182;2023-04-06T00:33:53;25.92;;;23.83;;
20802;SDS011;10562;-33.856;151.182;2023-04-06T00:36:25;27.00;;;24.88;;
20802;SDS011;10562;-33.856;151.182;2023-04-06T00:38:56;26.38;;;24.10;;
20802;SDS011;10562;-33.856;151.182;2023-04-06T00:41:27;24.33;;;22.02;;
20802;SDS011;10562;-33.856;151.182;2023-04-06T00:43:58;22.40;;;20.13;;
20802;SDS011;10562;-33.856;151.182;2023-04-06T00:46:28;23.83;;;21.52;;
20802;SDS011;10562;-33.856;151.182;2023-04-06T00:48:59;22.00;;;20.05;;
20802;SDS011;10562;-33.856;151.182;2023-04-06T00:51:32;21.05;;;19.15;;
20802;SDS011;10562;-33.856;151.182;2023-04-06T00:54:03;20.85;;;19.05;;
20802;SDS011;10562;-33.856;151.182;2023-04-06T00:56:34;21.58;;;19.52;;
20802;SDS011;10562;-33.856;151.182;2023-04-06T00:59:05;20.38;;;18.58;;
20802;SDS011;10562;-33.856;151.182;2023-04-06T01:01:36;17.58;;;15.98;;
20802;SDS011;10562;-33.856;151.182;2023-04-06T01:04:07;17.10;;;15.70;;
20802;SDS011;10562;-33.856;151.182;2023-04-06T01:06:40;20.58;;;18.77;;
20802;SDS011;10562;-33.856;151.182;2023-04-06T01:09:11;18.50;;;16.88;;
20802;SDS011;10562;-33.856;151.182;2023-04-06T01:11:42;19.63;;;17.73;;
20802;SDS011;10562;-33.856;151.182;2023-04-06T01:14:14;18.65;;;17.13;;
20802;SDS011;10562;-33.856;151.182;2023-04-06T01:16:45;20.70;;;18.98;;
20802;SDS011;10562;-33.856;151.182;2023-04-06T01:19:16;21.25;;;19.50;;
20802;SDS011;10562;-33.856;151.182;2023-04-06T01:21:49;21.02;;;19.17;;
20802;SDS011;10562;-33.856;151.182;2023-04-06T01:24:21;20.90;;;19.17;;
20802;SDS011;10562;-33.856;151.182;2023-04-06T01:26:52;18.75;;;16.77;;
20802;SDS011;10562;-33.856;151.182;2023-04-06T01:29:23;19.70;;;18.08;;
20802;SDS011;10562;-33.856;151.182;2023-04-06T01:31:54;18.42;;;16.90;;
20802;SDS011;10562;-33.856;151.182;2023-04-06T01:34:24;18.67;;;16.98;;
20802;SDS011;10562;-33.856;151.182;2023-04-06T01:36:55;16.98;;;15.68;;
20802;SDS011;10562;-33.856;151.182;2023-04-06T01:39:28;17.33;;;15.00;;
20802;SDS011;10562;-33.856;151.182;2023-04-06T01:41:59;16.95;;;15.48;;
20802;SDS011;10562;-33.856;151.182;2023-04-06T01:44:29;15.35;;;13.98;;
20802;SDS011;10562;-33.856;151.182;2023-04-06T01:47:00;14.95;;;13.75;;
20802;SDS011;10562;-33.856;151.182;2023-04-06T01:49:31;15.05;;;13.75;;
20802;SDS011;10562;-33.856;151.182;2023-04-06T01:52:02;15.05;;;13.57;;
20802;SDS011;10562;-33.856;151.182;2023-04-06T01:54:34;14.25;;;12.98;;
20802;SDS011;10562;-33.856;151.182;2023-04-06T01:57:05;12.63;;;11.43;;
20802;SDS011;10562;-33.856;151.182;2023-04-06T01:59:36;12.95;;;11.35;;
20802;SDS011;10562;-33.856;151.182;2023-04-06T02:02:07;11.10;;;10.20;;
20802;SDS011;10562;-33.856;151.182;2023-04-06T02:04:39;12.80;;;11.70;;
20802;SDS011;10562;-33.856;151.182;2023-04-06T02:07:09;13.02;;;11.93;;
20802;SDS011;10562;-33.856;151.182;2023-04-06T02:09:42;11.98;;;10.88;;
20802;SDS011;10562;-33.856;151.182;2023-04-06T02:12:13;12.32;;;11.20;;
20802;SDS011;10562;-33.856;151.182;2023-04-06T02:14:44;13.80;;;12.40;;
20802;SDS011;10562;-33.856;151.182;2023-04-06T02:17:14;12.75;;;11.65;;
20802;SDS011;10562;-33.856;151.182;2023-04-06T02:19:45;5.53;;;4.85;;
20802;SDS011;10562;-33.856;151.182;2023-04-06T02:22:16;5.47;;;4.97;;
20802;SDS011;10562;-33.856;151.182;2023-04-06T02:24:49;5.97;;;4.20;;
20802;SDS011;10562;-33.856;151.182;2023-04-06T02:27:19;4.10;;;2.70;;
20802;SDS011;10562;-33.856;151.182;2023-04-06T02:29:52;4.95;;;3.05;;
20802;SDS011;10562;-33.856;151.182;2023-04-06T02:32:22;3.55;;;1.80;;
20802;SDS011;10562;-33.856;151.182;2023-04-06T02:34:53;5.20;;;2.40;;
20802;SDS011;10562;-33.856;151.182;2023-04-06T02:37:24;4.90;;;2.10;;
20802;SDS011;10562;-33.856;151.182;2023-04-06T02:39:57;4.70;;;2.17;;
20802;SDS011;10562;-33.856;151.182;2023-04-06T02:42:27;5.53;;;2.00;;
20802;SDS011;10562;-33.856;151.182;2023-04-06T02:44:58;4.40;;;1.80;;
20802;SDS011;10562;-33.856;151.182;2023-04-06T02:47:29;3.83;;;1.90;;
20802;SDS011;10562;-33.856;151.182;2023-04-06T02:50:00;5.03;;;2.05;;
20802;SDS011;10562;-33.856;151.182;2023-04-06T02:52:30;5.93;;;2.10;;
20802;SDS011;10562;-33.856;151.182;2023-04-06T02:55:03;5.43;;;2.00;;
20802;SDS011;10562;-33.856;151.182;2023-04-06T02:57:35;3.70;;;1.88;;
20802;SDS011;10562;-33.856;151.182;2023-04-06T03:00:06;5.95;;;1.73;;
20802;SDS011;10562;-33.856;151.182;2023-04-06T03:02:37;5.65;;;1.75;;
20802;SDS011;10562;-33.856;151.182;2023-04-06T03:05:08;3.97;;;1.70;;
20802;SDS011;10562;-33.856;151.182;2023-04-06T03:07:39;3.58;;;1.38;;
20802;SDS011;10562;-33.856;151.182;2023-04-06T03:10:11;3.40;;;1.45;;
20802;SDS011;10562;-33.856;151.182;2023-04-06T03:12:42;5.38;;;1.63;;
20802;SDS011;10562;-33.856;151.182;2023-04-06T03:15:13;7.28;;;1.50;;
20802;SDS011;10562;-33.856;151.182;2023-04-06T03:17:44;3.83;;;1.50;;
20802;SDS011;10562;-33.856;151.182;2023-04-06T03:20:15;3.78;;;1.40;;
20802;SDS011;10562;-33.856;151.182;2023-04-06T03:22:46;2.13;;;1.02;;
20802;SDS011;10562;-33.856;151.182;2023-04-06T03:25:19;6.25;;;1.27;;
20802;SDS011;10562;-33.856;151.182;2023-04-06T03:27:50;4.03;;;1.00;;
20802;SDS011;10562;-33.856;151.182;2023-04-06T03:30:20;3.38;;;1.20;;
20802;SDS011;10562;-33.856;151.182;2023-04-06T03:32:52;5.50;;;1.10;;
20802;SDS011;10562;-33.856;151.182;2023-04-06T03:35:23;3.17;;;0.90;;
20802;SDS011;10562;-33.856;151.182;2023-04-06T03:37:54;4.05;;;1.17;;
20802;SDS011;10562;-33.856;151.182;2023-04-06T03:40:27;2.90;;;1.13;;
20802;SDS011;10562;-33.856;151.182;2023-04-06T03:42:57;3.75;;;1.00;;
20802;SDS011;10562;-33.856;151.182;2023-04-06T03:45:28;3.08;;;1.02;;
20802;SDS011;10562;-33.856;151.182;2023-04-06T03:47:59;2.60;;;0.90;;
20802;SDS011;10562;-33.856;151.182;2023-04-06T03:50:30;4.50;;;0.90;;
20802;SDS011;10562;-33.856;151.182;2023-04-06T03:53:01;2.25;;;0.70;;
20802;SDS011;10562;-33.856;151.182;2023-04-06T03:55:33;5.75;;;1.27;;
20802;SDS011;10562;-33.856;151.182;2023-04-06T03:58:04;2.53;;;1.00;;
20802;SDS011;10562;-33.856;151.182;2023-04-06T04:00:35;3.28;;;0.90;;
20802;SDS011;10562;-33.856;151.182;2023-04-06T04:03:06;3.00;;;1.00;;
20802;SDS011;10562;-33.856;151.182;2023-04-06T04:05:37;2.05;;;0.90;;
20802;SDS011;10562;-33.856;151.182;2023-04-06T04:08:07;3.20;;;1.10;;
20802;SDS011;10562;-33.856;151.182;2023-04-06T04:10:40;2.67;;;1.00;;
20802;SDS011;10562;-33.856;151.182;2023-04-06T04:13:11;2.25;;;1.00;;
20802;SDS011;10562;-33.856;151.182;2023-04-06T04:15:42;4.03;;;1.10;;
20802;SDS011;10562;-33.856;151.182;2023-04-06T04:18:13;3.03;;;0.90;;
20802;SDS011;10562;-33.856;151.182;2023-04-06T04:20:44;4.85;;;1.10;;
20802;SDS011;10562;-33.856;151.182;2023-04-06T04:23:15;3.90;;;0.90;;
20802;SDS011;10562;-33.856;151.182;2023-04-06T04:25:48;4.47;;;1.10;;
20802;SDS011;10562;-33.856;151.182;2023-04-06T04:28:19;2.53;;;1.08;;
20802;SDS011;10562;-33.856;151.182;2023-04-06T04:30:50;4.43;;;1.10;;
20802;SDS011;10562;-33.856;151.182;2023-04-06T04:33:20;5.88;;;1.08;;
20802;SDS011;10562;-33.856;151.182;2023-04-06T04:35:52;5.07;;;0.93;;
20802;SDS011;10562;-33.856;151.182;2023-04-06T04:38:23;3.53;;;1.00;;
20802;SDS011;10562;-33.856;151.182;2023-04-06T04:40:56;6.57;;;1.17;;
20802;SDS011;10562;-33.856;151.182;2023-04-06T04:43:26;3.17;;;1.05;;
20802;SDS011;10562;-33.856;151.182;2023-04-06T04:45:57;2.58;;;1.00;;
20802;SDS011;10562;-33.856;151.182;2023-04-06T04:48:28;3.55;;;1.02;;
20802;SDS011;10562;-33.856;151.182;2023-04-06T04:50:59;2.05;;;0.88;;
20802;SDS011;10562;-33.856;151.182;2023-04-06T04:53:29;2.42;;;0.80;;
20802;SDS011;10562;-33.856;151.182;2023-04-06T04:56:02;2.88;;;1.10;;
20802;SDS011;10562;-33.856;151.182;2023-04-06T04:58:33;2.28;;;0.80;;
20802;SDS011;10562;-33.856;151.182;2023-04-06T05:01:04;5.47;;;2.08;;
20802;SDS011;10562;-33.856;151.182;2023-04-06T05:03:36;3.70;;;1.10;;
20802;SDS011;10562;-33.856;151.182;2023-04-06T05:06:07;3.95;;;1.13;;
20802;SDS011;10562;-33.856;151.182;2023-04-06T05:08:38;4.13;;;1.48;;
20802;SDS011;10562;-33.856;151.182;2023-04-06T05:11:11;6.97;;;2.15;;
20802;SDS011;10562;-33.856;151.182;2023-04-06T05:13:42;6.20;;;1.40;;
20802;SDS011;10562;-33.856;151.182;2023-04-06T05:16:13;3.63;;;1.00;;
20802;SDS011;10562;-33.856;151.182;2023-04-06T05:18:44;3.72;;;0.90;;
20802;SDS011;10562;-33.856;151.182;2023-04-06T05:21:16;4.68;;;1.20;;
20802;SDS011;10562;-33.856;151.182;2023-04-06T05:23:47;3.13;;;1.00;;
20802;SDS011;10562;-33.856;151.182;2023-04-06T05:26:20;2.83;;;1.00;;
20802;SDS011;10562;-33.856;151.182;2023-04-06T05:28:51;4.65;;;0.80;;
20802;SDS011;10562;-33.856;151.182;2023-04-06T05:31:22;2.20;;;0.90;;
20802;SDS011;10562;-33.856;151.182;2023-04-06T05:33:53;3.55;;;0.80;;
20802;SDS011;10562;-33.856;151.182;2023-04-06T05:36:24;2.67;;;0.90;;
20802;SDS011;10562;-33.856;151.182;2023-04-06T05:38:55;2.78;;;0.85;;
20802;SDS011;10562;-33.856;151.182;2023-04-06T05:41:28;2.45;;;0.82;;
20802;SDS011;10562;-33.856;151.182;2023-04-06T05:43:58;3.85;;;1.00;;
20802;SDS011;10562;-33.856;151.182;2023-04-06T05:46:29;2.60;;;1.00;;
20802;SDS011;10562;-33.856;151.182;2023-04-06T05:49:00;3.58;;;0.70;;
20802;SDS011;10562;-33.856;151.182;2023-04-06T05:51:31;2.03;;;0.80;;
20802;SDS011;10562;-33.856;151.182;2023-04-06T05:54:02;2.50;;;0.80;;
20802;SDS011;10562;-33.856;151.182;2023-04-06T05:56:35;2.20;;;0.77;;
20802;SDS011;10562;-33.856;151.182;2023-04-06T05:59:05;3.20;;;0.80;;
20802;SDS011;10562;-33.856;151.182;2023-04-06T06:01:36;2.45;;;0.70;;
20802;SDS011;10562;-33.856;151.182;2023-04-06T06:04:07;2.85;;;0.80;;
20802;SDS011;10562;-33.856;151.182;2023-04-06T06:06:38;3.78;;;0.55;;
20802;SDS011;10562;-33.856;151.182;2023-04-06T06:09:08;3.05;;;0.70;;
20802;SDS011;10562;-33.856;151.182;2023-04-06T06:11:41;4.25;;;1.13;;
20802;SDS011;10562;-33.856;151.182;2023-04-06T06:14:12;2.38;;;0.90;;
20802;SDS011;10562;-33.856;151.182;2023-04-06T06:16:43;4.03;;;1.17;;
20802;SDS011;10562;-33.856;151.182;2023-04-06T06:19:14;4.53;;;1.50;;
20802;SDS011;10562;-33.856;151.182;2023-04-06T06:21:45;4.38;;;1.70;;
20802;SDS011;10562;-33.856;151.182;2023-04-06T06:24:15;3.40;;;1.30;;
20802;SDS011;10562;-33.856;151.182;2023-04-06T06:26:48;2.42;;;1.00;;
20802;SDS011;10562;-33.856;151.182;2023-04-06T06:29:19;4.82;;;1.05;;
20802;SDS011;10562;-33.856;151.182;2023-04-06T06:31:50;6.95;;;1.20;;
20802;SDS011;10562;-33.856;151.182;2023-04-06T06:34:20;2.45;;;0.90;;
20802;SDS011;10562;-33.856;151.182;2023-04-06T06:36:51;5.85;;;1.20;;
20802;SDS011;10562;-33.856;151.182;2023-04-06T06:39:22;6.13;;;1.00;;
20802;SDS011;10562;-33.856;151.182;2023-04-06T06:41:55;4.13;;;1.00;;
20802;SDS011;10562;-33.856;151.182;2023-04-06T06:44:27;6.68;;;1.00;;
20802;SDS011;10562;-33.856;151.182;2023-04-06T06:46:58;3.40;;;1.10;;
20802;SDS011;10562;-33.856;151.182;2023-04-06T06:49:29;4.65;;;1.05;;
20802;SDS011;10562;-33.856;151.182;2023-04-06T06:52:00;5.07;;;1.08;;
20802;SDS011;10562;-33.856;151.182;2023-04-06T06:54:32;6.05;;;1.50;;
20802;SDS011;10562;-33.856;151.182;2023-04-06T06:57:05;4.38;;;1.10;;
20802;SDS011;10562;-33.856;151.182;2023-04-06T06:59:35;3.03;;;1.00;;
20802;SDS011;10562;-33.856;151.182;2023-04-06T07:02:06;4.45;;;1.10;;
20802;SDS011;10562;-33.856;151.182;2023-04-06T07:04:38;3.70;;;1.23;;
20802;SDS011;10562;-33.856;151.182;2023-04-06T07:07:09;5.38;;;1.42;;
20802;SDS011;10562;-33.856;151.182;2023-04-06T07:09:40;4.90;;;1.10;;
20802;SDS011;10562;-33.856;151.182;2023-04-06T07:12:12;6.70;;;1.30;;
20802;SDS011;10562;-33.856;151.182;2023-04-06T07:14:44;4.53;;;1.33;;
20802;SDS011;10562;-33.856;151.182;2023-04-06T07:17:15;3.53;;;1.50;;
20802;SDS011;10562;-33.856;151.182;2023-04-06T07:19:45;5.47;;;1.88;;
20802;SDS011;10562;-33.856;151.182;2023-04-06T07:22:16;5.78;;;1.90;;
20802;SDS011;10562;-33.856;151.182;2023-04-06T07:24:47;6.70;;;2.05;;
20802;SDS011;10562;-33.856;151.182;2023-04-06T07:27:20;5.00;;;1.83;;
20802;SDS011;10562;-33.856;151.182;2023-04-06T07:29:50;6.60;;;2.33;;
20802;SDS011;10562;-33.856;151.182;2023-04-06T07:32:21;8.75;;;2.20;;
20802;SDS011;10562;-33.856;151.182;2023-04-06T07:34:52;7.05;;;2.28;;
20802;SDS011;10562;-33.856;151.182;2023-04-06T07:37:23;7.78;;;2.00;;
20802;SDS011;10562;-33.856;151.182;2023-04-06T07:39:54;5.10;;;1.83;;
20802;SDS011;10562;-33.856;151.182;2023-04-06T07:42:26;6.00;;;1.77;;
20802;SDS011;10562;-33.856;151.182;2023-04-06T07:44:57;4.30;;;1.40;;
20802;SDS011;10562;-33.856;151.182;2023-04-06T07:47:28;5.95;;;1.50;;
20802;SDS011;10562;-33.856;151.182;2023-04-06T07:49:59;5.22;;;1.92;;
20802;SDS011;10562;-33.856;151.182;2023-04-06T07:52:30;7.03;;;1.90;;
20802;SDS011;10562;-33.856;151.182;2023-04-06T07:55:01;4.65;;;1.70;;
20802;SDS011;10562;-33.856;151.182;2023-04-06T07:57:34;4.10;;;2.13;;
20802;SDS011;10562;-33.856;151.182;2023-04-06T08:00:06;4.90;;;2.20;;
20802;SDS011;10562;-33.856;151.182;2023-04-06T08:02:37;4.20;;;2.13;;
20802;SDS011;10562;-33.856;151.182;2023-04-06T08:05:08;5.18;;;2.60;;
20802;SDS011;10562;-33.856;151.182;2023-04-06T08:07:39;7.95;;;2.88;;
20802;SDS011;10562;-33.856;151.182;2023-04-06T08:10:10;7.97;;;2.92;;
20802;SDS011;10562;-33.856;151.182;2023-04-06T08:12:43;6.50;;;3.80;;
20802;SDS011;10562;-33.856;151.182;2023-04-06T08:15:13;8.23;;;3.53;;
20802;SDS011;10562;-33.856;151.182;2023-04-06T08:17:45;10.48;;;4.20;;
20802;SDS011;10562;-33.856;151.182;2023-04-06T08:20:16;6.25;;;4.63;;
20802;SDS011;10562;-33.856;151.182;2023-04-06T08:22:47;9.80;;;5.30;;
20802;SDS011;10562;-33.856;151.182;2023-04-06T08:25:17;8.73;;;5.40;;
20802;SDS011;10562;-33.856;151.182;2023-04-06T08:27:50;7.97;;;5.25;;
20802;SDS011;10562;-33.856;151.182;2023-04-06T08:30:21;8.10;;;5.55;;
20802;SDS011;10562;-33.856;151.182;2023-04-06T08:32:52;8.43;;;7.53;;
20802;SDS011;10562;-33.856;151.182;2023-04-06T08:35:26;7.95;;;7.03;;
20802;SDS011;10562;-33.856;151.182;2023-04-06T08:37:57;9.70;;;7.18;;
20802;SDS011;10562;-33.856;151.182;2023-04-06T08:40:28;9.48;;;8.35;;
20802;SDS011;10562;-33.856;151.182;2023-04-06T08:43:01;13.13;;;9.02;;
20802;SDS011;10562;-33.856;151.182;2023-04-06T08:45:36;18.00;;;13.10;;
20802;SDS011;10562;-33.856;151.182;2023-04-06T08:48:07;20.20;;;14.20;;
20802;SDS011;10562;-33.856;151.182;2023-04-06T08:50:40;16.10;;;12.57;;
20802;SDS011;10562;-33.856;151.182;2023-04-06T08:53:11;13.50;;;12.10;;
20802;SDS011;10562;-33.856;151.182;2023-04-06T08:55:43;17.42;;;12.63;;
20802;SDS011;10562;-33.856;151.182;2023-04-06T08:58:16;15.13;;;13.63;;
20802;SDS011;10562;-33.856;151.182;2023-04-06T09:00:47;17.33;;;14.93;;
20802;SDS011;10562;-33.856;151.182;2023-04-06T09:03:18;17.27;;;14.77;;
20802;SDS011;10562;-33.856;151.182;2023-04-06T09:05:51;19.33;;;15.68;;
20802;SDS011;10562;-33.856;151.182;2023-04-06T09:08:22;16.95;;;14.68;;
20802;SDS011;10562;-33.856;151.182;2023-04-06T09:10:53;16.20;;;14.43;;
20802;SDS011;10562;-33.856;151.182;2023-04-06T09:13:26;17.08;;;15.50;;
20802;SDS011;10562;-33.856;151.182;2023-04-06T09:16:00;18.05;;;16.13;;
20802;SDS011;10562;-33.856;151.182;2023-04-06T09:18:31;21.20;;;18.98;;
20802;SDS011;10562;-33.856;151.182;2023-04-06T09:21:04;21.98;;;17.95;;
20802;SDS011;10562;-33.856;151.182;2023-04-06T09:23:36;20.55;;;18.27;;
20802;SDS011;10562;-33.856;151.182;2023-04-06T09:26:08;22.55;;;18.38;;
20802;SDS011;10562;-33.856;151.182;2023-04-06T09:28:45;21.13;;;18.30;;
20802;SDS011;10562;-33.856;151.182;2023-04-06T09:31:21;21.08;;;18.90;;
20802;SDS011;10562;-33.856;151.182;2023-04-06T09:33:53;19.20;;;17.15;;
20802;SDS011;10562;-33.856;151.182;2023-04-06T09:36:30;19.15;;;17.17;;
20802;SDS011;10562;-33.856;151.182;2023-04-06T09:39:02;20.00;;;17.90;;
20802;SDS011;10562;-33.856;151.182;2023-04-06T09:41:33;20.42;;;18.38;;
20802;SDS011;10562;-33.856;151.182;2023-04-06T09:44:07;21.42;;;19.15;;
20802;SDS011;10562;-33.856;151.182;2023-04-06T09:46:40;19.35;;;17.65;;
20802;SDS011;10562;-33.856;151.182;2023-04-06T09:49:13;23.95;;;18.98;;
20802;SDS011;10562;-33.856;151.182;2023-04-06T09:51:45;22.08;;;20.17;;
20802;SDS011;10562;-33.856;151.182;2023-04-06T09:54:22;25.95;;;21.50;;
20802;SDS011;10562;-33.856;151.182;2023-04-06T09:56:58;23.45;;;21.15;;
20802;SDS011;10562;-33.856;151.182;2023-04-06T09:59:41;23.67;;;19.52;;
20802;SDS011;10562;-33.856;151.182;2023-04-06T10:02:23;21.38;;;19.20;;
20802;SDS011;10562;-33.856;151.182;2023-04-06T10:05:05;22.75;;;20.63;;
20802;SDS011;10562;-33.856;151.182;2023-04-06T10:07:39;24.23;;;21.92;;
20802;SDS011;10562;-33.856;151.182;2023-04-06T10:10:10;24.67;;;22.25;;
20802;SDS011;10562;-33.856;151.182;2023-04-06T10:12:43;27.88;;;25.13;;
20802;SDS011;10562;-33.856;151.182;2023-04-06T10:15:18;28.52;;;25.67;;
20802;SDS011;10562;-33.856;151.182;2023-04-06T10:17:49;29.05;;;25.92;;
20802;SDS011;10562;-33.856;151.182;2023-04-06T10:20:21;30.05;;;27.10;;
20802;SDS011;10562;-33.856;151.182;2023-04-06T10:22:57;28.55;;;25.77;;
20802;SDS011;10562;-33.856;151.182;2023-04-06T10:25:34;28.35;;;25.70;;
20802;SDS011;10562;-33.856;151.182;2023-04-06T10:28:05;31.05;;;27.95;;
20802;SDS011;10562;-33.856;151.182;2023-04-06T10:30:42;30.67;;;27.58;;
20802;SDS011;10562;-33.856;151.182;2023-04-06T10:33:13;30.70;;;27.67;;
20802;SDS011;10562;-33.856;151.182;2023-04-06T10:35:44;30.63;;;27.77;;
20802;SDS011;10562;-33.856;151.182;2023-04-06T10:38:15;31.33;;;28.08;;
20802;SDS011;10562;-33.856;151.182;2023-04-06T10:40:47;29.73;;;27.08;;
20802;SDS011;10562;-33.856;151.182;2023-04-06T10:43:18;30.63;;;27.92;;
20802;SDS011;10562;-33.856;151.182;2023-04-06T10:45:56;31.65;;;28.50;;
20802;SDS011;10562;-33.856;151.182;2023-04-06T10:48:36;33.22;;;30.15;;
20802;SDS011;10562;-33.856;151.182;2023-04-06T10:51:08;30.98;;;28.05;;
20802;SDS011;10562;-33.856;151.182;2023-04-06T10:53:40;31.83;;;28.95;;
20802;SDS011;10562;-33.856;151.182;2023-04-06T10:56:13;32.00;;;28.35;;
20802;SDS011;10562;-33.856;151.182;2023-04-06T10:58:45;30.17;;;27.58;;
20802;SDS011;10562;-33.856;151.182;2023-04-06T11:01:18;32.45;;;29.20;;
20802;SDS011;10562;-33.856;151.182;2023-04-06T11:03:51;30.50;;;27.83;;
20802;SDS011;10562;-33.856;151.182;2023-04-06T11:06:24;32.22;;;29.25;;
20802;SDS011;10562;-33.856;151.182;2023-04-06T11:08:57;30.52;;;27.70;;
20802;SDS011;10562;-33.856;151.182;2023-04-06T11:11:28;32.72;;;29.73;;
20802;SDS011;10562;-33.856;151.182;2023-04-06T11:13:59;31.17;;;28.58;;
20802;SDS011;10562;-33.856;151.182;2023-04-06T11:16:32;31.95;;;29.08;;
20802;SDS011;10562;-33.856;151.182;2023-04-06T11:19:03;33.40;;;30.25;;
20802;SDS011;10562;-33.856;151.182;2023-04-06T11:21:36;32.78;;;29.27;;
20802;SDS011;10562;-33.856;151.182;2023-04-06T11:24:08;34.65;;;31.00;;
20802;SDS011;10562;-33.856;151.182;2023-04-06T11:26:40;33.45;;;30.02;;
20802;SDS011;10562;-33.856;151.182;2023-04-06T11:29:12;35.10;;;32.13;;
20802;SDS011;10562;-33.856;151.182;2023-04-06T11:31:47;35.30;;;32.20;;
20802;SDS011;10562;-33.856;151.182;2023-04-06T11:34:20;35.33;;;32.17;;
20802;SDS011;10562;-33.856;151.182;2023-04-06T11:36:54;35.35;;;32.35;;
20802;SDS011;10562;-33.856;151.182;2023-04-06T11:39:26;35.83;;;32.60;;
20802;SDS011;10562;-33.856;151.182;2023-04-06T11:41:59;37.35;;;34.15;;
20802;SDS011;10562;-33.856;151.182;2023-04-06T11:44:31;37.85;;;34.75;;
20802;SDS011;10562;-33.856;151.182;2023-04-06T11:47:07;40.55;;;37.15;;
20802;SDS011;10562;-33.856;151.182;2023-04-06T11:49:39;43.75;;;40.10;;
20802;SDS011;10562;-33.856;151.182;2023-04-06T11:52:17;42.42;;;38.83;;
20802;SDS011;10562;-33.856;151.182;2023-04-06T11:54:53;42.08;;;38.67;;
20802;SDS011;10562;-33.856;151.182;2023-04-06T11:57:24;41.38;;;38.00;;
20802;SDS011;10562;-33.856;151.182;2023-04-06T11:59:55;41.40;;;37.92;;
20802;SDS011;10562;-33.856;151.182;2023-04-06T12:02:28;44.42;;;40.58;;
20802;SDS011;10562;-33.856;151.182;2023-04-06T12:04:59;51.38;;;46.90;;
20802;SDS011;10562;-33.856;151.182;2023-04-06T12:07:29;44.42;;;40.92;;
20802;SDS011;10562;-33.856;151.182;2023-04-06T12:10:01;46.22;;;42.30;;
20802;SDS011;10562;-33.856;151.182;2023-04-06T12:12:32;48.47;;;44.13;;
20802;SDS011;10562;-33.856;151.182;2023-04-06T12:15:03;46.72;;;42.55;;
20802;SDS011;10562;-33.856;151.182;2023-04-06T12:17:36;48.92;;;44.80;;
20802;SDS011;10562;-33.856;151.182;2023-04-06T12:20:07;66.63;;;60.28;;
20802;SDS011;10562;-33.856;151.182;2023-04-06T12:22:39;52.33;;;47.97;;
20802;SDS011;10562;-33.856;151.182;2023-04-06T12:25:10;53.88;;;48.92;;
20802;SDS011;10562;-33.856;151.182;2023-04-06T12:27:41;65.72;;;60.13;;
20802;SDS011;10562;-33.856;151.182;2023-04-06T12:30:12;65.05;;;59.67;;
20802;SDS011;10562;-33.856;151.182;2023-04-06T12:32:45;68.53;;;63.20;;
20802;SDS011;10562;-33.856;151.182;2023-04-06T12:35:15;87.30;;;79.93;;
20802;SDS011;10562;-33.856;151.182;2023-04-06T12:37:47;70.10;;;64.55;;
20802;SDS011;10562;-33.856;151.182;2023-04-06T12:40:17;71.88;;;66.28;;
20802;SDS011;10562;-33.856;151.182;2023-04-06T12:42:49;71.03;;;65.45;;
20802;SDS011;10562;-33.856;151.182;2023-04-06T12:45:22;68.18;;;62.35;;
20802;SDS011;10562;-33.856;151.182;2023-04-06T12:47:55;65.22;;;59.90;;
20802;SDS011;10562;-33.856;151.182;2023-04-06T12:50:26;72.63;;;66.90;;
20802;SDS011;10562;-33.856;151.182;2023-04-06T12:52:56;68.97;;;63.53;;
20802;SDS011;10562;-33.856;151.182;2023-04-06T12:55:29;67.80;;;62.40;;
20802;SDS011;10562;-33.856;151.182;2023-04-06T12:58:02;65.93;;;60.63;;
20802;SDS011;10562;-33.856;151.182;2023-04-06T13:00:33;65.35;;;60.17;;
20802;SDS011;10562;-33.856;151.182;2023-04-06T13:03:05;67.05;;;61.72;;
20802;SDS011;10562;-33.856;151.182;2023-04-06T13:05:36;70.45;;;64.93;;
20802;SDS011;10562;-33.856;151.182;2023-04-06T13:08:13;69.05;;;63.40;;
20802;SDS011;10562;-33.856;151.182;2023-04-06T13:10:46;80.53;;;73.72;;
20802;SDS011;10562;-33.856;151.182;2023-04-06T13:13:18;70.70;;;65.18;;
20802;SDS011;10562;-33.856;151.182;2023-04-06T13:15:52;74.78;;;68.80;;
20802;SDS011;10562;-33.856;151.182;2023-04-06T13:18:25;74.88;;;68.80;;
20802;SDS011;10562;-33.856;151.182;2023-04-06T13:20:56;72.43;;;67.03;;
20802;SDS011;10562;-33.856;151.182;2023-04-06T13:23:27;73.78;;;66.95;;
20802;SDS011;10562;-33.856;151.182;2023-04-06T13:25:58;72.28;;;66.13;;
20802;SDS011;10562;-33.856;151.182;2023-04-06T13:28:30;70.88;;;65.00;;
20802;SDS011;10562;-33.856;151.182;2023-04-06T13:31:03;69.78;;;63.97;;
20802;SDS011;10562;-33.856;151.182;2023-04-06T13:33:36;71.50;;;65.50;;
20802;SDS011;10562;-33.856;151.182;2023-04-06T13:36:07;71.10;;;65.25;;
20802;SDS011;10562;-33.856;151.182;2023-04-06T13:38:38;79.15;;;73.18;;
20802;SDS011;10562;-33.856;151.182;2023-04-06T13:41:09;83.28;;;76.50;;
20802;SDS011;10562;-33.856;151.182;2023-04-06T13:43:47;76.65;;;71.00;;
20802;SDS011;10562;-33.856;151.182;2023-04-06T13:46:18;78.43;;;72.63;;
20802;SDS011;10562;-33.856;151.182;2023-04-06T13:48:51;79.45;;;73.25;;
20802;SDS011;10562;-33.856;151.182;2023-04-06T13:51:22;77.88;;;71.88;;
20802;SDS011;10562;-33.856;151.182;2023-04-06T13:53:54;79.70;;;73.53;;
20802;SDS011;10562;-33.856;151.182;2023-04-06T13:56:24;79.07;;;73.20;;
20802;SDS011;10562;-33.856;151.182;2023-04-06T13:58:55;79.53;;;73.47;;
20802;SDS011;10562;-33.856;151.182;2023-04-06T14:01:26;79.85;;;73.85;;
20802;SDS011;10562;-33.856;151.182;2023-04-06T14:03:59;81.93;;;75.82;;
20802;SDS011;10562;-33.856;151.182;2023-04-06T14:06:30;79.93;;;73.60;;
20802;SDS011;10562;-33.856;151.182;2023-04-06T14:09:00;83.63;;;77.35;;
20802;SDS011;10562;-33.856;151.182;2023-04-06T14:11:32;91.75;;;84.70;;
20802;SDS011;10562;-33.856;151.182;2023-04-06T14:14:04;85.00;;;78.75;;
20802;SDS011;10562;-33.856;151.182;2023-04-06T14:16:35;81.82;;;75.57;;
20802;SDS011;10562;-33.856;151.182;2023-04-06T14:19:08;80.47;;;74.05;;
20802;SDS011;10562;-33.856;151.182;2023-04-06T14:21:39;83.32;;;77.15;;